| time (UTC) | temp F | wind direction | speed MPH | gust MPH | rain 1hr in | rain 24hr in | rain mn in | humidity % | barometer mb |
| 20260507161203 | 57 | 175 | 9.0 | 15.0 | 0.00 | 0.35 | 0.00 | 39 | 1018.8 |
| 20260507160204 | 57 | 191 | 7.0 | 12.0 | 0.00 | 0.35 | 0.00 | 39 | 1018.9 |
| 20260507155703 | 56 | 183 | 7.0 | 12.0 | 0.00 | 0.35 | 0.00 | 39 | 1019.0 |
| 20260507155203 | 55 | 176 | 9.0 | 16.0 | 0.00 | 0.36 | 0.00 | 39 | 1019.0 |
| 20260507154704 | 55 | 179 | 6.0 | 10.0 | 0.00 | 0.36 | 0.00 | 41 | 1019.0 |
| 20260507154204 | 55 | 184 | 9.0 | 16.0 | 0.00 | 0.36 | 0.00 | 40 | 1019.0 |
| 20260507153705 | 54 | 176 | 7.0 | 15.0 | 0.00 | 0.36 | 0.00 | 41 | 1019.1 |
| 20260507152704 | 54 | 171 | 7.0 | 12.0 | 0.00 | 0.36 | 0.00 | 41 | 1019.0 |
| 20260507151704 | 53 | 180 | 6.0 | 12.0 | 0.00 | 0.36 | 0.00 | 41 | 1019.1 |
| 20260507151205 | 53 | 170 | 5.0 | 10.0 | 0.00 | 0.36 | 0.00 | 42 | 1019.2 |
| 20260507150704 | 52 | 183 | 8.0 | 12.0 | 0.00 | 0.36 | 0.00 | 41 | 1019.2 |
| 20260507150204 | 51 | 192 | 7.0 | 13.0 | 0.00 | 0.36 | 0.00 | 42 | 1019.2 |
| 20260507145704 | 51 | 173 | 7.0 | 14.0 | 0.00 | 0.36 | 0.00 | 42 | 1019.2 |
| 20260507145204 | 50 | 186 | 10.0 | 14.0 | 0.00 | 0.36 | 0.00 | 43 | 1019.1 |
| 20260507144704 | 50 | 190 | 8.0 | 15.0 | 0.00 | 0.36 | 0.00 | 44 | 1019.1 |
| 20260507144203 | 49 | 184 | 10.0 | 16.0 | 0.00 | 0.36 | 0.00 | 44 | 1019.2 |
| 20260507143705 | 49 | 177 | 6.0 | 16.0 | 0.00 | 0.36 | 0.00 | 44 | 1019.3 |
| 20260507143205 | 48 | 193 | 9.0 | 15.0 | 0.00 | 0.36 | 0.00 | 44 | 1019.2 |
| 20260507142704 | 48 | 185 | 8.0 | 12.0 | 0.00 | 0.36 | 0.00 | 45 | 1019.3 |
| 20260507142203 | 47 | 185 | 10.0 | 17.0 | 0.00 | 0.36 | 0.00 | 46 | 1019.1 |
| 20260507141703 | 47 | 183 | 9.0 | 15.0 | 0.00 | 0.36 | 0.00 | 46 | 1019.1 |
| 20260507141203 | 47 | 184 | 7.0 | 15.0 | 0.00 | 0.36 | 0.00 | 47 | 1019.2 |
| 20260507140704 | 46 | 177 | 8.0 | 16.0 | 0.00 | 0.36 | 0.00 | 46 | 1019.2 |
| 20260507140205 | 46 | 179 | 7.0 | 13.0 | 0.00 | 0.36 | 0.00 | 47 | 1019.2 |
| 20260507135703 | 46 | 193 | 6.0 | 14.0 | 0.00 | 0.36 | 0.00 | 48 | 1019.4 |
| 20260507135204 | 45 | 193 | 8.0 | 16.0 | 0.00 | 0.36 | 0.00 | 49 | 1019.4 |
| 20260507134704 | 44 | 188 | 8.0 | 16.0 | 0.00 | 0.36 | 0.00 | 50 | 1019.3 |
| 20260507134203 | 44 | 178 | 9.0 | 15.0 | 0.00 | 0.36 | 0.00 | 51 | 1019.2 |
| 20260507133204 | 43 | 182 | 7.0 | 12.0 | 0.00 | 0.36 | 0.00 | 51 | 1019.2 |
| 20260507132704 | 43 | 174 | 7.0 | 12.0 | 0.00 | 0.36 | 0.00 | 51 | 1019.2 |
| 20260507132204 | 43 | 172 | 7.0 | 12.0 | 0.00 | 0.36 | 0.00 | 51 | 1019.2 |
| 20260507131705 | 43 | 182 | 7.0 | 12.0 | 0.00 | 0.36 | 0.00 | 51 | 1019.2 |
| 20260507131203 | 43 | 189 | 7.0 | 12.0 | 0.00 | 0.36 | 0.00 | 51 | 1019.2 |
| 20260507130203 | 42 | 178 | 6.0 | 13.0 | 0.00 | 0.36 | 0.00 | 52 | 1019.2 |
| 20260507125705 | 41 | 185 | 9.0 | 15.0 | 0.00 | 0.36 | 0.00 | 53 | 1019.1 |
| 20260507125204 | 41 | 174 | 8.0 | 13.0 | 0.00 | 0.36 | 0.00 | 53 | 1019.0 |
| 20260507124205 | 40 | 180 | 8.0 | 12.0 | 0.00 | 0.36 | 0.00 | 55 | 1018.9 |
| 20260507123705 | 39 | 179 | 8.0 | 12.0 | 0.00 | 0.36 | 0.00 | 56 | 1018.9 |
| 20260507123204 | 39 | 175 | 7.0 | 10.0 | 0.00 | 0.36 | 0.00 | 56 | 1018.9 |
| 20260507122705 | 38 | 175 | 6.0 | 13.0 | 0.00 | 0.36 | 0.00 | 57 | 1018.8 |
| 20260507122203 | 38 | 184 | 7.0 | 12.0 | 0.00 | 0.36 | 0.00 | 57 | 1018.8 |
| 20260507121704 | 38 | 177 | 6.0 | 10.0 | 0.00 | 0.36 | 0.00 | 57 | 1018.8 |
| 20260507121204 | 38 | 183 | 5.0 | 10.0 | 0.00 | 0.36 | 0.00 | 57 | 1018.8 |
| 20260507120703 | 38 | 176 | 6.0 | 10.0 | 0.00 | 0.36 | 0.00 | 57 | 1018.8 |
| 20260507120203 | 38 | 180 | 3.0 | 6.0 | 0.00 | 0.36 | 0.00 | 57 | 1018.8 |
| 20260507115204 | 38 | 172 | 5.0 | 10.0 | 0.00 | 0.36 | 0.00 | 57 | 1018.9 |
| 20260507114703 | 38 | 176 | 6.0 | 12.0 | 0.00 | 0.36 | 0.00 | 57 | 1018.8 |
| 20260507114202 | 38 | 168 | 7.0 | 12.0 | 0.00 | 0.36 | 0.00 | 57 | 1018.7 |
| 20260507113202 | 38 | 176 | 6.0 | 9.0 | 0.00 | 0.36 | 0.00 | 57 | 1018.7 |
| 20260507112703 | 38 | 172 | 6.0 | 9.0 | 0.00 | 0.36 | 0.00 | 57 | 1018.6 |
| 20260507112203 | 38 | 175 | 7.0 | 12.0 | 0.00 | 0.36 | 0.00 | 57 | 1018.6 |
| 20260507111703 | 38 | 182 | 6.0 | 12.0 | 0.00 | 0.36 | 0.00 | 57 | 1018.6 |
| 20260507111203 | 38 | 180 | 7.0 | 12.0 | 0.00 | 0.36 | 0.00 | 58 | 1018.6 |
| 20260507110703 | 37 | 171 | 6.0 | 12.0 | 0.00 | 0.36 | 0.00 | 59 | 1018.6 |
| 20260507110202 | 37 | 174 | 7.0 | 12.0 | 0.00 | 0.36 | 0.00 | 59 | 1018.7 |
| 20260507105703 | 37 | 177 | 9.0 | 13.0 | 0.00 | 0.36 | 0.00 | 59 | 1018.7 |
| 20260507105203 | 37 | 175 | 7.0 | 12.0 | 0.00 | 0.36 | 0.00 | 60 | 1018.7 |
| 20260507104702 | 37 | 184 | 6.0 | 9.0 | 0.00 | 0.36 | 0.00 | 60 | 1018.7 |
| 20260507104202 | 37 | 174 | 7.0 | 9.0 | 0.00 | 0.36 | 0.00 | 60 | 1018.7 |
| 20260507103704 | 37 | 173 | 6.0 | 10.0 | 0.00 | 0.36 | 0.00 | 61 | 1018.7 |
| 20260507103204 | 37 | 171 | 5.0 | 8.0 | 0.00 | 0.36 | 0.00 | 61 | 1018.8 |
| 20260507102703 | 37 | 178 | 5.0 | 10.0 | 0.00 | 0.36 | 0.00 | 61 | 1018.9 |
| 20260507102204 | 37 | 177 | 8.0 | 12.0 | 0.00 | 0.36 | 0.00 | 61 | 1018.9 |
| 20260507101703 | 37 | 176 | 6.0 | 12.0 | 0.00 | 0.36 | 0.00 | 61 | 1018.9 |
| 20260507101203 | 37 | 178 | 6.0 | 9.0 | 0.00 | 0.36 | 0.00 | 61 | 1019.0 |
| 20260507100702 | 37 | 166 | 3.0 | 9.0 | 0.00 | 0.36 | 0.00 | 62 | 1019.1 |
| 20260507100203 | 37 | 171 | 5.0 | 8.0 | 0.00 | 0.36 | 0.00 | 63 | 1019.0 |
| 20260507095703 | 36 | 173 | 6.0 | 9.0 | 0.00 | 0.36 | 0.00 | 65 | 1019.0 |
| 20260507095202 | 36 | 170 | 5.0 | 8.0 | 0.00 | 0.36 | 0.00 | 65 | 1019.0 |
| 20260507094704 | 36 | 169 | 6.0 | 12.0 | 0.00 | 0.36 | 0.00 | 66 | 1019.1 |
| 20260507094204 | 36 | 174 | 6.0 | 8.0 | 0.00 | 0.36 | 0.00 | 66 | 1019.1 |
| 20260507093702 | 36 | 168 | 6.0 | 10.0 | 0.00 | 0.36 | 0.00 | 66 | 1019.2 |
| 20260507093203 | 36 | 179 | 8.0 | 13.0 | 0.00 | 0.36 | 0.00 | 67 | 1019.1 |
| 20260507092702 | 35 | 175 | 6.0 | 10.0 | 0.00 | 0.36 | 0.00 | 68 | 1019.2 |
| 20260507091703 | 35 | 176 | 5.0 | 8.0 | 0.00 | 0.36 | 0.00 | 69 | 1019.2 |
| 20260507090703 | 35 | 166 | 5.0 | 8.0 | 0.00 | 0.36 | 0.00 | 70 | 1019.1 |
| 20260507090203 | 35 | 167 | 6.0 | 9.0 | 0.00 | 0.36 | 0.00 | 70 | 1019.1 |
| 20260507085703 | 35 | 173 | 6.0 | 9.0 | 0.00 | 0.36 | 0.00 | 71 | 1019.2 |
| 20260507085203 | 35 | 167 | 5.0 | 9.0 | 0.00 | 0.36 | 0.00 | 72 | 1019.1 |
| 20260507084703 | 35 | 174 | 6.0 | 9.0 | 0.00 | 0.36 | 0.00 | 73 | 1019.1 |
| 20260507084202 | 35 | 176 | 6.0 | 12.0 | 0.00 | 0.36 | 0.00 | 74 | 1019.2 |
| 20260507083702 | 34 | 175 | 6.0 | 10.0 | 0.00 | 0.36 | 0.00 | 75 | 1019.2 |
| 20260507083204 | 34 | 177 | 6.0 | 10.0 | 0.00 | 0.36 | 0.00 | 76 | 1019.3 |
| 20260507082204 | 34 | 164 | 5.0 | 9.0 | 0.00 | 0.36 | 0.00 | 76 | 1019.4 |
| 20260507081704 | 34 | 181 | 6.0 | 8.0 | 0.00 | 0.36 | 0.00 | 76 | 1019.4 |
| 20260507081202 | 34 | 170 | 5.0 | 9.0 | 0.00 | 0.36 | 0.00 | 77 | 1019.4 |
| 20260507080704 | 34 | 174 | 6.0 | 13.0 | 0.00 | 0.36 | 0.00 | 77 | 1019.5 |
| 20260507080203 | 34 | 171 | 7.0 | 10.0 | 0.00 | 0.36 | 0.00 | 78 | 1019.5 |
| 20260507075704 | 34 | 177 | 6.0 | 12.0 | 0.00 | 0.36 | 0.00 | 79 | 1019.7 |
| 20260507075203 | 34 | 172 | 6.0 | 12.0 | 0.00 | 0.36 | 0.00 | 79 | 1019.7 |
| 20260507074704 | 34 | 167 | 6.0 | 12.0 | 0.00 | 0.36 | 0.00 | 80 | 1019.8 |
| 20260507074203 | 34 | 177 | 7.0 | 9.0 | 0.00 | 0.36 | 0.00 | 80 | 1019.8 |
| 20260507072702 | 34 | 184 | 7.0 | 10.0 | 0.00 | 0.37 | 0.00 | 80 | 1019.9 |
| 20260507072203 | 34 | 176 | 6.0 | 9.0 | 0.00 | 0.37 | 0.00 | 81 | 1019.9 |
| 20260507071703 | 34 | 180 | 7.0 | 10.0 | 0.00 | 0.37 | 0.00 | 81 | 1019.9 |
| 20260507071204 | 34 | 171 | 6.0 | 9.0 | 0.00 | 0.37 | 0.00 | 81 | 1019.9 |
| 20260507070703 | 34 | 170 | 7.0 | 12.0 | 0.00 | 0.37 | 0.00 | 81 | 1019.9 |
| 20260507070205 | 34 | 172 | 7.0 | 10.0 | 0.00 | 0.37 | 0.00 | 81 | 1020.0 |
| 20260507065703 | 34 | 178 | 7.0 | 12.0 | 0.00 | 0.37 | 0.00 | 82 | 1020.0 |
| 20260507065204 | 34 | 185 | 6.0 | 12.0 | 0.00 | 0.37 | 0.00 | 82 | 1020.0 |
| 20260507064703 | 34 | 176 | 6.0 | 12.0 | 0.00 | 0.37 | 0.00 | 82 | 1019.9 |
| 20260507064204 | 34 | 173 | 5.0 | 9.0 | 0.00 | 0.37 | 0.00 | 82 | 1020.0 |
| 20260507063703 | 34 | 177 | 6.0 | 10.0 | 0.00 | 0.37 | 0.00 | 82 | 1020.0 |
| 20260507063204 | 34 | 176 | 7.0 | 10.0 | 0.00 | 0.37 | 0.00 | 82 | 1020.0 |
| 20260507062703 | 34 | 178 | 6.0 | 12.0 | 0.00 | 0.37 | 0.00 | 82 | 1020.0 |
| 20260507062204 | 34 | 183 | 6.0 | 10.0 | 0.00 | 0.37 | 0.00 | 82 | 1020.0 |
| 20260507061704 | 34 | 182 | 6.0 | 8.0 | 0.00 | 0.37 | 0.00 | 82 | 1020.0 |
| 20260507061204 | 34 | 183 | 6.0 | 10.0 | 0.00 | 0.37 | 0.00 | 83 | 1020.1 |
| 20260507060710 | 34 | 177 | 6.0 | 9.0 | 0.00 | 0.37 | 0.00 | 83 | 1020.0 |
| 20260507060203 | 34 | 179 | 5.0 | 8.0 | 0.00 | 0.37 | 0.00 | 83 | 1020.0 |
| 20260507055704 | 34 | 174 | 5.0 | 8.0 | 0.00 | 0.37 | 0.37 | 83 | 1020.0 |
| 20260507055203 | 34 | 182 | 5.0 | 7.0 | 0.00 | 0.37 | 0.37 | 83 | 1020.1 |
| 20260507054703 | 34 | 182 | 5.0 | 8.0 | 0.00 | 0.37 | 0.37 | 83 | 1020.1 |
| 20260507054203 | 34 | 181 | 5.0 | 7.0 | 0.00 | 0.37 | 0.37 | 83 | 1020.2 |
| 20260507053703 | 34 | 180 | 5.0 | 7.0 | 0.00 | 0.37 | 0.37 | 82 | 1020.2 |
| 20260507052704 | 34 | 182 | 3.0 | 6.0 | 0.00 | 0.37 | 0.37 | 82 | 1020.3 |
| 20260507052204 | 34 | 181 | 2.0 | 3.0 | 0.00 | 0.37 | 0.37 | 82 | 1020.3 |
| 20260507051703 | 35 | 183 | 3.0 | 7.0 | 0.00 | 0.37 | 0.37 | 82 | 1020.2 |
| 20260507051203 | 35 | 160 | 4.0 | 7.0 | 0.00 | 0.37 | 0.37 | 82 | 1020.2 |
| 20260507050703 | 35 | 170 | 4.0 | 8.0 | 0.00 | 0.37 | 0.37 | 82 | 1020.3 |
| 20260507050202 | 35 | 165 | 4.0 | 8.0 | 0.00 | 0.37 | 0.37 | 82 | 1020.3 |
| 20260507044703 | 35 | 179 | 4.0 | 10.0 | 0.00 | 0.37 | 0.37 | 82 | 1020.2 |
| 20260507044203 | 35 | 178 | 6.0 | 12.0 | 0.00 | 0.37 | 0.37 | 82 | 1020.2 |
| 20260507043702 | 35 | 177 | 5.0 | 8.0 | 0.00 | 0.37 | 0.37 | 82 | 1020.2 |
| 20260507042703 | 35 | 196 | 0.0 | 3.0 | 0.00 | 0.37 | 0.37 | 82 | 1020.4 |
| 20260507042204 | 35 | 191 | 2.0 | 5.0 | 0.00 | 0.37 | 0.37 | 82 | 1020.4 |
| 20260507041702 | 35 | 207 | 3.0 | 6.0 | 0.00 | 0.37 | 0.37 | 82 | 1020.3 |
| 20260507041203 | 35 | 198 | 3.0 | 8.0 | 0.00 | 0.37 | 0.37 | 82 | 1020.3 |
| 20260507040703 | 35 | 167 | 3.0 | 9.0 | 0.00 | 0.37 | 0.37 | 83 | 1020.3 |
| 20260507040203 | 35 | 188 | 5.0 | 8.0 | 0.00 | 0.37 | 0.37 | 83 | 1020.3 |
| 20260507035704 | 35 | 170 | 4.0 | 9.0 | 0.00 | 0.37 | 0.37 | 83 | 1020.2 |
| 20260507035203 | 35 | 164 | 2.0 | 6.0 | 0.00 | 0.37 | 0.37 | 83 | 1020.2 |
| 20260507034703 | 35 | 174 | 3.0 | 6.0 | 0.00 | 0.37 | 0.37 | 83 | 1020.2 |
| 20260507034203 | 34 | 169 | 3.0 | 8.0 | 0.00 | 0.37 | 0.37 | 83 | 1020.1 |
| 20260507033704 | 34 | 145 | 2.0 | 6.0 | 0.00 | 0.37 | 0.37 | 82 | 1020.2 |
| 20260507033204 | 34 | 124 | 2.0 | 3.0 | 0.00 | 0.37 | 0.37 | 82 | 1020.1 |
| 20260507032204 | 34 | 124 | 1.0 | 3.0 | 0.00 | 0.37 | 0.37 | 81 | 1020.1 |
| 20260507031203 | 35 | 124 | 1.0 | 3.0 | 0.00 | 0.37 | 0.37 | 80 | 1020.0 |
| 20260507030703 | 35 | 124 | 2.0 | 5.0 | 0.00 | 0.37 | 0.37 | 80 | 1020.1 |
| 20260507030204 | 35 | 145 | 2.0 | 6.0 | 0.00 | 0.37 | 0.37 | 79 | 1020.0 |
| 20260507025703 | 35 | 145 | 2.0 | 5.0 | 0.00 | 0.37 | 0.37 | 79 | 1020.0 |
| 20260507025203 | 35 | 145 | 3.0 | 5.0 | 0.00 | 0.37 | 0.37 | 79 | 1020.0 |
| 20260507024704 | 36 | 143 | 3.0 | 5.0 | 0.00 | 0.37 | 0.37 | 79 | 1020.0 |
| 20260507023703 | 36 | 143 | 3.0 | 5.0 | 0.00 | 0.37 | 0.37 | 78 | 1019.9 |
| 20260507023204 | 36 | 141 | 2.0 | 5.0 | 0.00 | 0.37 | 0.37 | 78 | 1019.9 |
| 20260507022704 | 36 | 141 | 2.0 | 3.0 | 0.00 | 0.37 | 0.37 | 77 | 1019.9 |
| 20260507022203 | 36 | 143 | 2.0 | 3.0 | 0.00 | 0.37 | 0.37 | 77 | 1019.9 |
| 20260507021703 | 36 | 143 | 2.0 | 3.0 | 0.00 | 0.37 | 0.37 | 76 | 1019.9 |
| 20260507021204 | 37 | 144 | 3.0 | 5.0 | 0.00 | 0.37 | 0.37 | 76 | 1019.9 |
| 20260507020203 | 37 | 146 | 3.0 | 6.0 | 0.00 | 0.37 | 0.37 | 75 | 1019.8 |
| 20260507015203 | 38 | 156 | 4.0 | 8.0 | 0.00 | 0.37 | 0.37 | 73 | 1019.9 |
| 20260507014704 | 38 | 150 | 3.0 | 7.0 | 0.00 | 0.37 | 0.37 | 72 | 1020.0 |
| 20260507014204 | 38 | 150 | 4.0 | 7.0 | 0.00 | 0.37 | 0.37 | 71 | 1020.0 |
| 20260507013704 | 38 | 156 | 3.0 | 9.0 | 0.00 | 0.37 | 0.37 | 71 | 1020.1 |
| 20260507013205 | 39 | 143 | 4.0 | 7.0 | 0.00 | 0.37 | 0.37 | 70 | 1020.1 |
| 20260507012704 | 39 | 159 | 3.0 | 9.0 | 0.00 | 0.37 | 0.37 | 69 | 1020.1 |
| 20260507012205 | 39 | 166 | 5.0 | 7.0 | 0.00 | 0.37 | 0.37 | 69 | 1020.2 |
| 20260507011704 | 39 | 130 | 3.0 | 7.0 | 0.00 | 0.37 | 0.37 | 68 | 1020.2 |
| 20260507011204 | 40 | 169 | 3.0 | 7.0 | 0.00 | 0.37 | 0.37 | 68 | 1020.2 |
| 20260507010704 | 40 | 170 | 4.0 | 8.0 | 0.00 | 0.37 | 0.37 | 67 | 1020.3 |
| 20260507010205 | 40 | 162 | 3.0 | 5.0 | 0.00 | 0.37 | 0.37 | 68 | 1020.3 |
| 20260507005705 | 40 | 174 | 4.0 | 7.0 | 0.00 | 0.37 | 0.37 | 68 | 1020.3 |
| 20260507005203 | 40 | 137 | 3.0 | 5.0 | 0.00 | 0.37 | 0.37 | 69 | 1020.3 |
| 20260507004704 | 40 | 126 | 3.0 | 5.0 | 0.00 | 0.37 | 0.37 | 68 | 1020.3 |
| 20260507004204 | 40 | 143 | 2.0 | 7.0 | 0.00 | 0.37 | 0.37 | 67 | 1020.4 |
| 20260507003704 | 40 | 192 | 5.0 | 8.0 | 0.00 | 0.37 | 0.37 | 68 | 1020.4 |
| 20260507003203 | 40 | 179 | 3.0 | 7.0 | 0.00 | 0.37 | 0.37 | 68 | 1020.4 |
| 20260507002704 | 40 | 175 | 5.0 | 7.0 | 0.00 | 0.37 | 0.37 | 69 | 1020.4 |
| 20260507002204 | 40 | 171 | 3.0 | 7.0 | 0.00 | 0.37 | 0.37 | 71 | 1020.5 |
| 20260507001705 | 39 | 150 | 3.0 | 6.0 | 0.00 | 0.37 | 0.37 | 73 | 1020.5 |
| 20260507001205 | 39 | 111 | 2.0 | 6.0 | 0.00 | 0.37 | 0.37 | 73 | 1020.5 |
| 20260507000704 | 39 | 156 | 4.0 | 7.0 | 0.00 | 0.37 | 0.37 | 72 | 1020.5 |
| 20260506235703 | 40 | 164 | 4.0 | 7.0 | 0.00 | 0.37 | 0.37 | 71 | 1020.5 |
| 20260506235204 | 39 | 191 | 3.0 | 5.0 | 0.00 | 0.37 | 0.37 | 71 | 1020.5 |
| 20260506234704 | 39 | 165 | 4.0 | 9.0 | 0.00 | 0.37 | 0.37 | 71 | 1020.5 |
| 20260506234204 | 39 | 129 | 3.0 | 12.0 | 0.00 | 0.37 | 0.37 | 73 | 1020.5 |
| 20260506233704 | 39 | 121 | 2.0 | 5.0 | 0.00 | 0.37 | 0.37 | 73 | 1020.5 |
| 20260506233205 | 39 | 163 | 5.0 | 9.0 | 0.00 | 0.37 | 0.37 | 71 | 1020.6 |
| 20260506232706 | 39 | 162 | 5.0 | 7.0 | 0.00 | 0.37 | 0.37 | 71 | 1020.6 |
| 20260506232204 | 39 | 147 | 2.0 | 5.0 | 0.00 | 0.37 | 0.37 | 71 | 1020.6 |
| 20260506231204 | 39 | 169 | 5.0 | 7.0 | 0.00 | 0.37 | 0.37 | 72 | 1020.6 |
| 20260506230704 | 39 | 191 | 3.0 | 9.0 | 0.00 | 0.37 | 0.37 | 73 | 1020.7 |
| 20260506230204 | 39 | 202 | 1.0 | 7.0 | 0.00 | 0.37 | 0.37 | 74 | 1020.7 |
| 20260506225704 | 38 | 184 | 4.0 | 12.0 | 0.00 | 0.37 | 0.37 | 74 | 1020.7 |
| 20260506224704 | 38 | 154 | 3.0 | 7.0 | 0.00 | 0.40 | 0.37 | 75 | 1020.8 |
| 20260506224204 | 38 | 157 | 3.0 | 6.0 | 0.00 | 0.41 | 0.37 | 77 | 1020.9 |
| 20260506223203 | 37 | 137 | 2.0 | 3.0 | 0.00 | 0.43 | 0.37 | 79 | 1021.0 |
| 20260506222205 | 37 | 137 | 1.0 | 3.0 | 0.01 | 0.44 | 0.37 | 79 | 1021.1 |
| 20260506221204 | 36 | 146 | 2.0 | 5.0 | 0.01 | 0.46 | 0.37 | 79 | 1021.2 |
| 20260506220203 | 37 | 160 | 1.0 | 3.0 | 0.01 | 0.49 | 0.37 | 78 | 1021.3 |
| 20260506215704 | 37 | 151 | 1.0 | 3.0 | 0.01 | 0.49 | 0.37 | 79 | 1021.3 |
| 20260506214703 | 37 | 151 | 0.0 | 3.0 | 0.01 | 0.50 | 0.37 | 80 | 1021.3 |
| 20260506214205 | 37 | 143 | 1.0 | 3.0 | 0.02 | 0.51 | 0.37 | 80 | 1021.3 |
| 20260506213704 | 36 | 160 | 2.0 | 6.0 | 0.02 | 0.51 | 0.37 | 80 | 1021.4 |
| 20260506213204 | 36 | 126 | 2.0 | 6.0 | 0.02 | 0.51 | 0.37 | 81 | 1021.5 |
| 20260506212704 | 36 | 37 | 1.0 | 3.0 | 0.01 | 0.50 | 0.36 | 81 | 1021.6 |
| 20260506211703 | 36 | 37 | 1.0 | 2.0 | 0.02 | 0.51 | 0.36 | 82 | 1021.6 |
| 20260506211204 | 36 | 37 | 0.0 | 2.0 | 0.02 | 0.53 | 0.36 | 82 | 1021.6 |
| 20260506210703 | 36 | 38 | 0.0 | 0.0 | 0.03 | 0.53 | 0.36 | 82 | 1021.7 |
| 20260506210207 | 35 | 38 | 0.0 | 1.0 | 0.03 | 0.54 | 0.36 | 82 | 1021.7 |
| 20260506205204 | 35 | 39 | 0.0 | 3.0 | 0.05 | 0.54 | 0.36 | 82 | 1021.9 |
| 20260506204705 | 36 | 39 | 2.0 | 3.0 | 0.06 | 0.54 | 0.36 | 83 | 1021.9 |
| 20260506204204 | 36 | 39 | 1.0 | 3.0 | 0.06 | 0.53 | 0.35 | 83 | 1021.9 |
| 20260506203704 | 35 | 36 | 1.0 | 3.0 | 0.06 | 0.53 | 0.35 | 83 | 1021.9 |
| 20260506203203 | 35 | 29 | 1.0 | 3.0 | 0.07 | 0.53 | 0.35 | 83 | 1021.9 |
| 20260506202704 | 36 | 29 | 2.0 | 3.0 | 0.08 | 0.53 | 0.35 | 84 | 1022.0 |
| 20260506202204 | 35 | 2 | 2.0 | 3.0 | 0.08 | 0.52 | 0.34 | 84 | 1022.0 |
| 20260506201705 | 35 | 1 | 3.0 | 5.0 | 0.09 | 0.52 | 0.34 | 84 | 1022.0 |
| 20260506201204 | 35 | 10 | 3.0 | 6.0 | 0.10 | 0.52 | 0.34 | 85 | 1022.0 |
| 20260506200705 | 35 | 29 | 1.0 | 3.0 | 0.10 | 0.51 | 0.33 | 86 | 1022.1 |
| 20260506200204 | 35 | 29 | 3.0 | 5.0 | 0.12 | 0.51 | 0.33 | 86 | 1022.1 |
| 20260506195703 | 35 | 329 | 3.0 | 5.0 | 0.14 | 0.51 | 0.32 | 86 | 1022.2 |
| 20260506195205 | 35 | 17 | 3.0 | 5.0 | 0.15 | 0.51 | 0.32 | 86 | 1022.2 |
| 20260506194704 | 34 | 6 | 2.0 | 6.0 | 0.15 | 0.50 | 0.31 | 87 | 1022.1 |
| 20260506194204 | 34 | 354 | 4.0 | 7.0 | 0.15 | 0.49 | 0.29 | 87 | 1022.2 |
| 20260506193703 | 34 | 33 | 3.0 | 6.0 | 0.16 | 0.49 | 0.29 | 87 | 1022.3 |
| 20260506193203 | 33 | 15 | 4.0 | 8.0 | 0.16 | 0.47 | 0.28 | 87 | 1022.3 |
| 20260506192705 | 34 | 340 | 4.0 | 6.0 | 0.15 | 0.46 | 0.27 | 87 | 1022.3 |
| 20260506192206 | 34 | 6 | 5.0 | 7.0 | 0.15 | 0.45 | 0.26 | 88 | 1022.3 |
| 20260506191704 | 34 | 22 | 4.0 | 6.0 | 0.14 | 0.44 | 0.25 | 87 | 1022.4 |
| 20260506191207 | 34 | 6 | 4.0 | 9.0 | 0.14 | 0.43 | 0.24 | 88 | 1022.4 |
| 20260506190704 | 34 | 10 | 5.0 | 9.0 | 0.12 | 0.42 | 0.23 | 88 | 1022.4 |
| 20260506190203 | 35 | 28 | 4.0 | 7.0 | 0.11 | 0.40 | 0.20 | 88 | 1022.3 |
| 20260506185704 | 35 | 31 | 3.0 | 6.0 | 0.09 | 0.37 | 0.18 | 88 | 1022.4 |
| 20260506185204 | 34 | 50 | 5.0 | 8.0 | 0.08 | 0.36 | 0.17 | 88 | 1022.4 |
| 20260506184705 | 33 | 34 | 5.0 | 10.0 | 0.08 | 0.35 | 0.16 | 88 | 1022.4 |
| 20260506184204 | 33 | 7 | 6.0 | 9.0 | 0.07 | 0.34 | 0.15 | 88 | 1022.5 |
| 20260506183704 | 33 | 12 | 5.0 | 8.0 | 0.07 | 0.33 | 0.14 | 88 | 1022.6 |
| 20260506183203 | 33 | 357 | 4.0 | 7.0 | 0.06 | 0.32 | 0.12 | 88 | 1022.6 |
| 20260506182706 | 33 | 21 | 3.0 | 7.0 | 0.06 | 0.32 | 0.12 | 89 | 1022.6 |
| 20260506182204 | 33 | 21 | 4.0 | 8.0 | 0.05 | 0.31 | 0.11 | 89 | 1022.6 |
| 20260506181704 | 32 | 35 | 6.0 | 10.0 | 0.06 | 0.31 | 0.11 | 89 | 1022.6 |
| 20260506181204 | 32 | 30 | 5.0 | 8.0 | 0.05 | 0.29 | 0.10 | 89 | 1022.6 |
| 20260506180704 | 32 | 46 | 7.0 | 12.0 | 0.05 | 0.29 | 0.10 | 89 | 1022.5 |
| 20260506180203 | 31 | 44 | 5.0 | 9.0 | 0.05 | 0.28 | 0.09 | 89 | 1022.5 |
| 20260506175703 | 31 | 26 | 5.0 | 12.0 | 0.05 | 0.28 | 0.09 | 89 | 1022.4 |
| 20260506175205 | 31 | 14 | 5.0 | 10.0 | 0.05 | 0.28 | 0.09 | 89 | 1022.4 |
| 20260506174704 | 31 | 7 | 6.0 | 9.0 | 0.05 | 0.27 | 0.08 | 89 | 1022.4 |
| 20260506173705 | 31 | 30 | 7.0 | 12.0 | 0.03 | 0.26 | 0.07 | 89 | 1022.4 |
| 20260506173204 | 31 | 22 | 6.0 | 12.0 | 0.05 | 0.26 | 0.07 | 89 | 1022.3 |
| 20260506172705 | 32 | 35 | 5.0 | 12.0 | 0.05 | 0.26 | 0.07 | 89 | 1022.3 |
| 20260506172205 | 31 | 32 | 7.0 | 10.0 | 0.05 | 0.26 | 0.07 | 89 | 1022.2 |
| 20260506171704 | 32 | 18 | 5.0 | 9.0 | 0.03 | 0.25 | 0.06 | 89 | 1022.2 |
| 20260506171205 | 32 | 15 | 7.0 | 12.0 | 0.03 | 0.26 | 0.06 | 89 | 1022.0 |
| 20260506170204 | 32 | 341 | 4.0 | 8.0 | 0.02 | 0.25 | 0.05 | 89 | 1021.9 |
| 20260506165705 | 33 | 343 | 3.0 | 8.0 | 0.02 | 0.25 | 0.05 | 89 | 1021.8 |
| 20260506164704 | 32 | 316 | 2.0 | 6.0 | 0.02 | 0.24 | 0.03 | 89 | 1021.5 |
| 20260506164204 | 32 | 337 | 4.0 | 8.0 | 0.02 | 0.25 | 0.03 | 89 | 1021.5 |
| 20260506163704 | 32 | 338 | 2.0 | 6.0 | 0.02 | 0.25 | 0.03 | 89 | 1021.4 |
| 20260506163205 | 32 | 349 | 2.0 | 5.0 | 0.01 | 0.24 | 0.02 | 89 | 1021.5 |
| 20260506162704 | 32 | 307 | 0.0 | 2.0 | 0.01 | 0.24 | 0.02 | 89 | 1021.5 |
| 20260506161705 | 32 | 307 | 0.0 | 0.0 | 0.01 | 0.24 | 0.02 | 89 | 1021.5 |